createdAt,value
2023-05-15T00:01:12.732Z,14.50
2023-05-15T00:04:01.198Z,14.40
2023-05-15T00:06:49.283Z,14.30
2023-05-15T00:09:39.025Z,14.20
2023-05-15T00:12:27.339Z,14.20
2023-05-15T00:15:15.416Z,14.20
2023-05-15T00:18:03.510Z,14.20
2023-05-15T00:20:52.802Z,14.00
2023-05-15T00:23:40.890Z,13.90
2023-05-15T00:26:31.053Z,13.80
2023-05-15T00:29:19.141Z,13.80
2023-05-15T00:32:07.550Z,13.70
2023-05-15T00:34:55.669Z,13.70
2023-05-15T00:37:43.872Z,13.70
2023-05-15T00:40:32.847Z,13.60
2023-05-15T00:43:22.930Z,13.60
2023-05-15T00:46:11.378Z,13.60
2023-05-15T00:48:59.518Z,13.60
2023-05-15T00:51:47.599Z,13.70
2023-05-15T00:54:35.726Z,13.60
2023-05-15T00:57:24.853Z,13.60
2023-05-15T01:00:16.867Z,13.50
2023-05-15T01:03:06.175Z,13.50
2023-05-15T01:05:54.456Z,13.30
2023-05-15T01:08:43.816Z,13.20
2023-05-15T01:11:36.258Z,13.10
2023-05-15T01:14:24.494Z,13.10
2023-05-15T01:17:14.192Z,13.00
2023-05-15T01:20:04.297Z,13.00
2023-05-15T01:23:07.175Z,13.00
2023-05-15T01:26:11.620Z,13.10
2023-05-15T01:29:02.882Z,13.10
2023-05-15T01:31:56.132Z,13.20
2023-05-15T01:34:46.052Z,13.20
2023-05-15T01:37:35.565Z,13.30
2023-05-15T01:40:24.618Z,13.30
2023-05-15T01:43:16.426Z,13.30
2023-05-15T01:46:06.922Z,13.30
2023-05-15T01:48:56.161Z,13.30
2023-05-15T01:51:45.659Z,13.30
2023-05-15T01:54:34.627Z,13.20
2023-05-15T01:57:23.271Z,13.10
2023-05-15T02:00:12.149Z,13.10
2023-05-15T02:03:02.108Z,13.10
2023-05-15T02:05:50.522Z,13.00
2023-05-15T02:08:38.798Z,13.00
2023-05-15T02:11:26.861Z,12.90
2023-05-15T02:14:16.051Z,12.90
2023-05-15T02:17:04.202Z,12.80
2023-05-15T02:19:53.628Z,12.80
2023-05-15T02:22:41.664Z,12.80
2023-05-15T02:25:34.554Z,12.70
2023-05-15T02:28:25.544Z,12.60
2023-05-15T02:31:15.628Z,12.40
2023-05-15T02:34:09.214Z,12.30
2023-05-15T02:37:00.309Z,12.20
2023-05-15T02:39:49.717Z,12.20
2023-05-15T02:42:38.109Z,12.20
2023-05-15T02:45:27.034Z,12.20
2023-05-15T02:48:15.744Z,12.10
2023-05-15T02:51:04.111Z,12.00
2023-05-15T02:53:53.667Z,12.00
2023-05-15T02:56:41.765Z,12.00
2023-05-15T02:59:29.939Z,12.00
2023-05-15T03:02:18.000Z,12.00
2023-05-15T03:05:06.644Z,12.00
2023-05-15T03:07:54.767Z,12.00
2023-05-15T03:10:44.666Z,12.00
2023-05-15T03:13:32.822Z,12.00
2023-05-15T03:16:21.020Z,12.00
2023-05-15T03:19:09.185Z,11.80
2023-05-15T03:21:57.308Z,11.70
2023-05-15T03:24:45.411Z,11.70
2023-05-15T03:27:34.834Z,11.70
2023-05-15T03:30:22.948Z,11.70
2023-05-15T03:33:11.026Z,11.80
2023-05-15T03:35:59.170Z,11.80
2023-05-15T03:38:47.219Z,11.80
2023-05-15T03:41:35.329Z,11.80
2023-05-15T03:44:24.826Z,11.90
2023-05-15T03:47:12.935Z,11.90
2023-05-15T03:50:01.058Z,11.90
2023-05-15T03:52:49.202Z,11.90
2023-05-15T03:55:37.317Z,11.90
2023-05-15T03:58:25.395Z,11.90
2023-05-15T04:01:14.846Z,11.80
2023-05-15T04:04:02.927Z,11.70
2023-05-15T04:06:51.081Z,11.60
2023-05-15T04:09:39.148Z,11.50
2023-05-15T04:12:29.573Z,11.50
2023-05-15T04:15:18.337Z,11.60
2023-05-15T04:18:07.852Z,11.60
2023-05-15T04:20:56.118Z,11.60
2023-05-15T04:23:44.194Z,11.60
2023-05-15T04:26:32.453Z,11.60
2023-05-15T04:29:20.612Z,11.60
2023-05-15T04:32:08.829Z,11.70
2023-05-15T04:34:58.277Z,11.70
2023-05-15T04:37:46.929Z,11.70
2023-05-15T04:40:35.021Z,11.70
2023-05-15T04:43:23.122Z,11.80
2023-05-15T04:46:11.221Z,11.90
2023-05-15T04:48:59.348Z,12.00
2023-05-15T04:51:48.773Z,12.10
2023-05-15T04:54:36.844Z,12.20
2023-05-15T04:57:25.691Z,12.20
2023-05-15T05:00:14.679Z,12.30
2023-05-15T05:03:02.801Z,12.30
2023-05-15T05:05:50.878Z,12.40
2023-05-15T05:08:40.309Z,12.50
2023-05-15T05:11:28.548Z,12.60
2023-05-15T05:14:16.672Z,12.70
2023-05-15T05:17:04.953Z,12.70
2023-05-15T05:19:53.030Z,12.90
2023-05-15T05:22:42.491Z,12.90
2023-05-15T05:25:32.048Z,13.00
2023-05-15T05:28:20.201Z,13.10
2023-05-15T05:31:08.489Z,13.20
2023-05-15T05:33:56.712Z,13.40
2023-05-15T05:36:44.767Z,13.60
2023-05-15T05:39:32.883Z,13.80
2023-05-15T05:42:22.385Z,13.90
2023-05-15T05:45:11.705Z,14.00
2023-05-15T05:47:59.818Z,14.10
2023-05-15T05:50:47.916Z,14.30
2023-05-15T05:53:37.502Z,14.40
2023-05-15T05:56:26.696Z,14.50
2023-05-15T05:59:16.265Z,14.70
2023-05-15T06:02:04.841Z,14.80
2023-05-15T06:04:53.444Z,14.90
2023-05-15T06:07:41.582Z,15.00
2023-05-15T06:10:29.759Z,15.00
2023-05-15T06:13:18.102Z,15.10
2023-05-15T06:16:08.016Z,15.10
2023-05-15T06:18:56.265Z,15.20
2023-05-15T06:21:44.411Z,15.30
2023-05-15T06:24:32.686Z,15.40
2023-05-15T06:27:21.074Z,15.40
2023-05-15T06:30:09.719Z,15.50
2023-05-15T06:32:59.210Z,15.60
2023-05-15T06:35:47.480Z,15.60
2023-05-15T06:38:36.111Z,15.70
2023-05-15T06:41:24.209Z,15.80
2023-05-15T06:44:12.344Z,16.00
2023-05-15T06:47:00.646Z,16.10
2023-05-15T06:49:50.193Z,16.10
2023-05-15T06:52:38.300Z,16.20
2023-05-15T06:55:26.508Z,16.30
2023-05-15T06:58:14.816Z,16.40
2023-05-15T07:01:03.877Z,16.50
2023-05-15T07:03:51.971Z,16.50
2023-05-15T07:06:41.468Z,16.60
2023-05-15T07:09:29.578Z,16.60
2023-05-15T07:12:17.634Z,16.70
2023-05-15T07:15:06.117Z,16.80
2023-05-15T07:17:54.433Z,16.80
2023-05-15T07:20:42.591Z,16.90
2023-05-15T07:23:32.062Z,17.00
2023-05-15T07:26:27.929Z,17.20
2023-05-15T07:29:19.553Z,17.20
2023-05-15T07:32:07.883Z,17.30
2023-05-15T07:34:55.990Z,17.30
2023-05-15T07:37:44.108Z,17.40
2023-05-15T07:40:33.822Z,17.40
2023-05-15T07:43:21.869Z,17.40
2023-05-15T07:46:10.046Z,17.50
2023-05-15T07:48:58.132Z,17.60
2023-05-15T07:51:46.220Z,17.80
2023-05-15T07:54:34.283Z,17.90
2023-05-15T07:57:24.305Z,17.90
2023-05-15T08:00:12.933Z,18.00
2023-05-15T08:03:01.486Z,18.00
2023-05-15T08:05:49.738Z,18.00
2023-05-15T08:08:37.823Z,18.10
2023-05-15T08:11:26.015Z,18.10
2023-05-15T08:14:15.523Z,18.10
2023-05-15T08:17:03.657Z,18.30
2023-05-15T08:19:51.901Z,18.30
2023-05-15T08:22:40.153Z,18.40
2023-05-15T08:25:28.226Z,18.50
2023-05-15T08:28:16.348Z,18.50
2023-05-15T08:31:05.871Z,18.60
2023-05-15T08:33:53.997Z,18.60
2023-05-15T08:36:42.077Z,18.60
2023-05-15T08:39:30.166Z,18.50
2023-05-15T08:42:22.264Z,18.50
2023-05-15T08:45:11.097Z,18.50
2023-05-15T08:48:01.563Z,18.50
2023-05-15T08:50:49.889Z,18.60
2023-05-15T08:53:38.226Z,18.70
2023-05-15T08:56:26.400Z,18.70
2023-05-15T08:59:14.744Z,18.80
2023-05-15T09:02:03.014Z,18.90
2023-05-15T09:04:52.666Z,19.00
2023-05-15T09:07:41.842Z,19.10
2023-05-15T09:10:30.556Z,19.20
2023-05-15T09:13:18.741Z,19.30
2023-05-15T09:16:08.280Z,19.50
2023-05-15T09:18:56.769Z,19.80
2023-05-15T09:21:46.169Z,19.90
2023-05-15T09:24:39.450Z,20.00
2023-05-15T09:27:27.497Z,20.20
2023-05-15T09:30:18.793Z,20.50
2023-05-15T09:33:07.018Z,20.60
2023-05-15T09:35:55.142Z,20.70
2023-05-15T09:38:48.106Z,21.00
2023-05-15T09:41:36.176Z,21.10
2023-05-15T09:44:26.067Z,21.30
2023-05-15T09:47:16.885Z,21.50
2023-05-15T09:50:05.366Z,21.60
2023-05-15T09:52:53.507Z,21.80
2023-05-15T09:55:43.585Z,21.90
2023-05-15T09:58:31.698Z,21.90
2023-05-15T10:01:20.961Z,21.80
2023-05-15T10:04:09.052Z,21.80
2023-05-15T10:06:57.125Z,21.80
2023-05-15T10:09:45.198Z,21.90
2023-05-15T10:12:36.727Z,21.90
2023-05-15T10:15:25.025Z,22.00
2023-05-15T10:18:14.147Z,22.00
2023-05-15T10:21:04.344Z,22.10
2023-05-15T10:23:53.991Z,22.30
2023-05-15T10:26:42.774Z,22.60
2023-05-15T10:29:32.791Z,22.90
2023-05-15T10:32:21.079Z,23.00
2023-05-15T10:35:10.736Z,22.90
2023-05-15T10:37:58.984Z,22.70
2023-05-15T10:40:47.676Z,22.50
2023-05-15T10:43:36.366Z,22.30
2023-05-15T10:46:26.075Z,22.10
2023-05-15T10:49:14.202Z,21.90
2023-05-15T10:52:02.350Z,21.80
2023-05-15T10:54:50.493Z,21.60
2023-05-15T10:57:38.612Z,21.50
2023-05-15T11:00:27.712Z,21.50
2023-05-15T11:03:17.486Z,21.50
2023-05-15T11:06:09.641Z,21.50
2023-05-15T11:09:17.771Z,21.40
2023-05-15T11:12:06.800Z,21.60
2023-05-15T11:15:24.520Z,21.70
2023-05-15T11:18:12.898Z,21.80
2023-05-15T11:21:11.460Z,21.90
2023-05-15T11:24:04.972Z,21.80
2023-05-15T11:26:53.409Z,21.80
2023-05-15T11:29:56.357Z,21.80
2023-05-15T11:32:52.141Z,21.90
2023-05-15T11:35:42.216Z,22.00
2023-05-15T11:38:37.663Z,22.00
2023-05-15T11:41:32.112Z,22.00
2023-05-15T11:44:21.021Z,22.00
2023-05-15T11:47:10.641Z,22.00
2023-05-15T11:49:59.097Z,22.10
2023-05-15T11:52:47.326Z,22.20
2023-05-15T11:55:37.869Z,22.20
2023-05-15T11:58:26.932Z,22.20
2023-05-15T12:01:15.037Z,22.40
2023-05-15T12:04:03.273Z,22.70
2023-05-15T12:06:51.635Z,23.20
2023-05-15T12:09:40.201Z,23.60
2023-05-15T12:12:29.752Z,23.80
2023-05-15T12:15:18.286Z,23.80
2023-05-15T12:18:07.392Z,24.00
2023-05-15T12:20:55.819Z,24.30
2023-05-15T12:24:03.281Z,24.30
2023-05-15T12:26:57.335Z,24.10
2023-05-15T12:29:47.220Z,23.70
2023-05-15T12:32:36.118Z,23.50
2023-05-15T12:35:24.298Z,23.50
2023-05-15T12:38:15.619Z,23.60
2023-05-15T12:41:06.342Z,23.60
2023-05-15T12:43:54.417Z,23.60
2023-05-15T12:46:44.084Z,23.60
2023-05-15T12:49:32.193Z,23.60
2023-05-15T12:52:20.623Z,23.50
2023-05-15T12:55:09.014Z,23.50
2023-05-15T12:57:57.764Z,23.60
2023-05-15T13:00:46.791Z,23.90
2023-05-15T13:03:36.480Z,24.40
2023-05-15T13:06:29.366Z,24.60
2023-05-15T13:09:26.825Z,24.50
2023-05-15T13:12:14.885Z,24.30
2023-05-15T13:15:02.975Z,24.10
2023-05-15T13:17:53.171Z,23.90
2023-05-15T13:20:43.773Z,24.00
2023-05-15T13:23:31.903Z,24.10
2023-05-15T13:26:20.056Z,24.20
2023-05-15T13:29:08.135Z,24.10
2023-05-15T13:31:56.301Z,23.90
2023-05-15T13:34:44.398Z,23.60
2023-05-15T13:37:33.915Z,23.80
2023-05-15T13:40:22.497Z,24.10
2023-05-15T13:43:10.593Z,24.40
2023-05-15T13:45:58.676Z,24.70
2023-05-15T13:48:46.804Z,24.60
2023-05-15T13:51:34.909Z,24.50
2023-05-15T13:54:24.338Z,24.40
2023-05-15T13:57:12.416Z,24.40
2023-05-15T14:00:00.528Z,24.50
2023-05-15T14:02:48.730Z,24.50
2023-05-15T14:05:36.879Z,24.30
2023-05-15T14:08:24.945Z,24.40
2023-05-15T14:11:14.424Z,24.50
2023-05-15T14:14:03.930Z,24.60
2023-05-15T14:16:52.068Z,24.70
2023-05-15T14:19:40.302Z,25.00
2023-05-15T14:22:28.366Z,25.00
2023-05-15T14:25:16.778Z,24.70
2023-05-15T14:28:06.208Z,24.50
2023-05-15T14:30:54.287Z,24.30
2023-05-15T14:33:42.336Z,23.80
2023-05-15T14:36:30.597Z,23.40
2023-05-15T14:39:19.039Z,23.40
2023-05-15T14:42:07.485Z,23.50
2023-05-15T14:44:56.886Z,23.50
2023-05-15T14:47:45.006Z,23.40
2023-05-15T14:50:33.094Z,23.10
2023-05-15T14:53:21.136Z,23.00
2023-05-15T14:56:09.238Z,23.00
2023-05-15T14:58:57.291Z,23.10
2023-05-15T15:01:47.226Z,23.10
2023-05-15T15:04:35.342Z,23.10
2023-05-15T15:07:23.412Z,23.10
2023-05-15T15:10:11.509Z,23.10
2023-05-15T15:12:59.840Z,23.50
2023-05-15T15:15:48.295Z,23.80
2023-05-15T15:18:37.766Z,24.70
2023-05-15T15:21:26.099Z,25.10
2023-05-15T15:24:14.179Z,26.00
2023-05-15T15:27:02.281Z,27.10
2023-05-15T15:29:50.449Z,27.90
2023-05-15T15:32:39.237Z,28.60
2023-05-15T15:35:29.126Z,29.10
2023-05-15T15:38:17.192Z,29.80
2023-05-15T15:41:06.395Z,30.00
2023-05-15T15:43:54.828Z,30.10
2023-05-15T15:46:42.870Z,30.10
2023-05-15T15:49:31.718Z,30.10
2023-05-15T15:52:22.426Z,30.10
2023-05-15T15:55:10.933Z,29.90
2023-05-15T15:57:59.023Z,29.20
2023-05-15T16:00:47.203Z,27.90
2023-05-15T16:03:35.385Z,26.70
2023-05-15T16:06:23.570Z,25.80
2023-05-15T16:09:13.054Z,25.60
2023-05-15T16:12:01.666Z,25.90
2023-05-15T16:14:49.730Z,27.10
2023-05-15T16:17:38.268Z,28.40
2023-05-15T16:20:26.630Z,28.10
2023-05-15T16:23:15.586Z,27.60
2023-05-15T16:26:06.029Z,27.60
2023-05-15T16:28:54.527Z,27.80
2023-05-15T16:31:42.686Z,28.50
2023-05-15T16:34:30.797Z,28.30
2023-05-15T16:37:18.876Z,27.40
2023-05-15T16:40:07.674Z,26.60
2023-05-15T16:42:57.647Z,25.90
2023-05-15T16:45:46.237Z,25.20
2023-05-15T16:48:34.398Z,24.70
2023-05-15T16:51:22.767Z,24.30
2023-05-15T16:54:10.833Z,23.90
2023-05-15T16:56:58.941Z,23.70
2023-05-15T16:59:48.397Z,23.30
2023-05-15T17:02:36.558Z,23.10
2023-05-15T17:05:24.751Z,22.80
2023-05-15T17:08:12.936Z,22.60
2023-05-15T17:11:01.210Z,22.40
2023-05-15T17:13:49.255Z,22.30
2023-05-15T17:16:38.801Z,22.10
2023-05-15T17:19:26.903Z,22.00
2023-05-15T17:22:15.020Z,21.70
2023-05-15T17:25:04.333Z,21.50
2023-05-15T17:27:52.445Z,21.40
2023-05-15T17:30:40.641Z,21.30
2023-05-15T17:33:30.116Z,21.10
2023-05-15T17:36:18.221Z,20.80
2023-05-15T17:39:06.347Z,20.70
2023-05-15T17:41:54.432Z,20.60
2023-05-15T17:44:42.527Z,20.40
2023-05-15T17:47:30.585Z,20.30
2023-05-15T17:50:20.108Z,20.00
2023-05-15T17:53:08.184Z,19.80
2023-05-15T17:55:56.341Z,19.80
2023-05-15T17:58:44.513Z,19.70
2023-05-15T18:01:32.815Z,19.70
2023-05-15T18:04:21.035Z,19.60
2023-05-15T18:07:10.618Z,19.50
2023-05-15T18:09:58.671Z,19.50
2023-05-15T18:12:47.036Z,19.50
2023-05-15T18:15:36.072Z,19.40
2023-05-15T18:18:24.422Z,19.50
2023-05-15T18:21:19.884Z,19.40
2023-05-15T18:24:10.023Z,19.30
2023-05-15T18:26:58.115Z,19.30
2023-05-15T18:29:46.213Z,19.10
2023-05-15T18:32:34.419Z,19.10
2023-05-15T18:35:22.642Z,19.10
2023-05-15T18:38:10.732Z,19.00
2023-05-15T18:41:00.162Z,19.00
2023-05-15T18:43:48.333Z,18.90
2023-05-15T18:46:36.614Z,18.90
2023-05-15T18:49:24.717Z,18.90
2023-05-15T18:52:13.265Z,18.80
2023-05-15T18:55:01.441Z,18.90
2023-05-15T18:57:51.083Z,18.80
2023-05-15T19:00:39.449Z,18.70
2023-05-15T19:03:27.816Z,18.70
2023-05-15T19:06:19.886Z,18.70
2023-05-15T19:09:09.520Z,18.60
2023-05-15T19:11:57.667Z,18.70
2023-05-15T19:14:47.230Z,18.60
2023-05-15T19:17:37.408Z,18.60
2023-05-15T19:20:26.804Z,18.50
2023-05-15T19:23:15.377Z,18.50
2023-05-15T19:26:03.489Z,18.50
2023-05-15T19:28:52.914Z,18.50
2023-05-15T19:31:43.905Z,18.50
2023-05-15T19:34:32.122Z,18.50
2023-05-15T19:37:20.303Z,18.50
2023-05-15T19:40:09.081Z,18.50
2023-05-15T19:42:57.161Z,18.40
2023-05-15T19:45:45.332Z,18.30
2023-05-15T19:48:34.954Z,18.30
2023-05-15T19:51:23.037Z,18.20
2023-05-15T19:54:11.318Z,18.20
2023-05-15T19:57:02.671Z,18.20
2023-05-15T19:59:50.769Z,18.10
2023-05-15T20:02:39.012Z,18.00
2023-05-15T20:05:28.622Z,17.90
2023-05-15T20:08:17.281Z,17.80
2023-05-15T20:11:05.440Z,17.80
2023-05-15T20:13:53.508Z,17.70
2023-05-15T20:16:41.677Z,17.70
2023-05-15T20:19:31.499Z,17.70
2023-05-15T20:22:21.170Z,17.70
2023-05-15T20:25:09.810Z,17.70
2023-05-15T20:27:58.731Z,17.60
2023-05-15T20:30:47.645Z,17.60
2023-05-15T20:33:35.769Z,17.60
2023-05-15T20:36:25.612Z,17.60
2023-05-15T20:39:15.089Z,17.60
2023-05-15T20:42:03.171Z,17.50
2023-05-15T20:44:51.768Z,17.40
2023-05-15T20:47:40.343Z,17.40
2023-05-15T20:50:28.662Z,17.30
2023-05-15T20:53:16.932Z,17.30
2023-05-15T20:56:06.559Z,17.30
2023-05-15T20:58:54.904Z,17.10
2023-05-15T21:01:43.557Z,17.10
2023-05-15T21:04:31.781Z,16.90
2023-05-15T21:07:19.950Z,16.90
2023-05-15T21:10:08.653Z,16.90
2023-05-15T21:12:59.567Z,16.90
2023-05-15T21:15:47.930Z,16.80
2023-05-15T21:18:36.026Z,16.80
2023-05-15T21:21:24.197Z,16.70
2023-05-15T21:24:12.300Z,16.70
2023-05-15T21:27:00.407Z,16.70
2023-05-15T21:29:49.857Z,16.70
2023-05-15T21:32:37.931Z,16.60
2023-05-15T21:35:28.796Z,16.60
2023-05-15T21:38:17.243Z,16.60
2023-05-15T21:41:05.342Z,16.60
2023-05-15T21:43:53.389Z,16.60
2023-05-15T21:46:42.864Z,16.60
2023-05-15T21:49:30.976Z,16.60
2023-05-15T21:52:19.020Z,16.60
2023-05-15T21:55:07.947Z,16.50
2023-05-15T21:57:56.015Z,16.40
2023-05-15T22:00:44.125Z,16.40
2023-05-15T22:03:33.712Z,16.30
2023-05-15T22:06:21.945Z,16.30
2023-05-15T22:09:10.058Z,16.30
2023-05-15T22:11:58.133Z,16.30
2023-05-15T22:14:57.871Z,16.30
2023-05-15T22:17:47.408Z,16.20
2023-05-15T22:20:37.161Z,16.20
2023-05-15T22:23:25.208Z,16.20
2023-05-15T22:26:13.422Z,16.20
2023-05-15T22:29:01.520Z,16.10
2023-05-15T22:31:49.730Z,16.10
2023-05-15T22:34:37.898Z,16.00
2023-05-15T22:37:27.338Z,15.90
2023-05-15T22:40:16.019Z,15.80
2023-05-15T22:43:04.071Z,15.60
2023-05-15T22:45:52.347Z,15.50
2023-05-15T22:48:41.437Z,15.40
2023-05-15T22:51:29.576Z,15.30
2023-05-15T22:54:21.640Z,15.20
2023-05-15T22:57:10.381Z,15.10
2023-05-15T22:59:58.936Z,15.00
2023-05-15T23:02:47.027Z,14.90
2023-05-15T23:05:35.184Z,14.80
2023-05-15T23:08:23.277Z,14.70
2023-05-15T23:11:12.685Z,14.60
2023-05-15T23:14:01.006Z,14.60
2023-05-15T23:16:49.875Z,14.50
2023-05-15T23:19:37.970Z,14.50
2023-05-15T23:22:26.133Z,14.40
2023-05-15T23:25:14.240Z,14.40
2023-05-15T23:28:03.697Z,14.40
2023-05-15T23:30:53.063Z,14.30
2023-05-15T23:33:41.260Z,14.20
2023-05-15T23:36:29.343Z,14.10
2023-05-15T23:39:17.452Z,14.00
2023-05-15T23:42:05.810Z,13.90
2023-05-15T23:44:55.458Z,13.80
2023-05-15T23:47:43.618Z,13.80
2023-05-15T23:50:31.876Z,13.70
2023-05-15T23:53:19.968Z,13.60
2023-05-15T23:56:08.371Z,13.50
2023-05-15T23:58:56.504Z,13.50
